KHTS/HTS METAR and TAF weather

Enter ICAO airport designator
Station Type Date Time Source
KHTS METAR 2020/04/10 17:51 UTC NOAA

KHTS 101751Z 29009G18KT 260V320 10SM OVC065 08/M04 A3001 RMK AO2 SLP163 T00831039 10083 20022 50002


Station Type Date Time Source
KHTS Decoded METAR 2020/04/10 17:51 UTC NOAA

TRI-STATE AIRPORT, WV, United States (KHTS) 38-22N 082-33W 254M
Apr 10, 2020 - 01:51 PM EDT / 2020.04.10 1751 UTC
Wind: from the WNW (290 degrees) at 10 MPH (9 KT) gusting to 21 MPH (18 KT) (direction variable):0
Visibility: 10 mile(s):0
Sky conditions: overcast
Temperature: 46.9 F (8.3 C)
Dew Point: 25.0 F (-3.9 C)
Relative Humidity: 41%
Pressure (altimeter): 30.01 in. Hg (1016 hPa)
Pressure tendency: 0.01 inches (0.2 hPa) higher than three hours ago
ob: KHTS 101751Z 29009G18KT 260V320 10SM OVC065 08/M04 A3001 RMK AO2 SLP163 T00831039 10083 20022 50002
cycle: 18

Station Type Date Time Source
KHTS TAF 2020/04/10 18:36 UTC NOAA

TAF
AMD KHTS 101733Z 1018/1118 31012G21KT P6SM BKN060 OVC070
FM101900 29009G19KT P6SM SCT060
FM102100 29009G17KT P6SM SCT060
FM102300 30006KT P6SM SCT090
FM110000 29004KT P6SM SCT250
FM110200 00000KT P6SM SCT250

Example: see airport list